Time;durP1;ratioP1;P1;durP2;ratioP2;P2;SDS_P1;SDS_P2;PMS_P1;PMS_P2;Temp;Humidity;BMP_temperature;BMP_pressure;BME280_temperature;BME280_humidity;BME280_pressure;Samples;Min_cycle;Max_cycle;Signal;HPM_P1;HPM_P2
2023/07/03 00:00:54;;;;;;;13.23;5.30;;;18.40;75.60;;;;;;5009224;28;20034;-65
2023/07/03 00:03:40;;;;;;;9.52;3.58;;;18.40;75.70;;;;;;5009791;28;20199;-64
2023/07/03 00:06:26;;;;;;;7.72;4.38;;;18.40;76.00;;;;;;4994727;28;20034;-64
2023/07/03 00:09:12;;;;;;;6.13;3.40;;;18.30;75.90;;;;;;4991913;28;20062;-64
2023/07/03 00:11:58;;;;;;;10.02;3.80;;;18.30;75.90;;;;;;4994346;28;20034;-64
2023/07/03 00:14:45;;;;;;;7.78;4.13;;;18.30;76.00;;;;;;5006556;28;20091;-64
2023/07/03 00:17:31;;;;;;;9.80;4.45;;;18.20;76.10;;;;;;5009027;28;20038;-64
2023/07/03 00:20:17;;;;;;;7.72;3.95;;;18.20;76.30;;;;;;5000329;28;20038;-64
2023/07/03 00:23:03;;;;;;;7.25;3.83;;;18.20;76.70;;;;;;5004045;28;20041;-64
2023/07/03 00:25:50;;;;;;;13.32;4.43;;;18.10;76.60;;;;;;5010106;28;20101;-64
2023/07/03 00:28:35;;;;;;;6.70;4.18;;;18.10;76.70;;;;;;5008454;28;20036;-65
2023/07/03 00:31:21;;;;;;;8.60;4.22;;;18.00;76.70;;;;;;4994947;28;20053;-64
2023/07/03 00:34:07;;;;;;;6.30;3.67;;;18.00;77.00;;;;;;4991258;28;20520;-64
2023/07/03 00:36:54;;;;;;;8.23;4.68;;;18.00;77.20;;;;;;5010277;28;20045;-65
2023/07/03 00:39:40;;;;;;;7.97;4.03;;;17.90;77.20;;;;;;5002050;28;20037;-65
2023/07/03 00:42:27;;;;;;;8.32;4.45;;;17.90;77.40;;;;;;5003715;28;20037;-65
2023/07/03 00:45:13;;;;;;;6.53;3.80;;;17.90;77.50;;;;;;5005455;28;20046;-65
2023/07/03 00:47:59;;;;;;;9.15;4.20;;;17.90;77.50;;;;;;5010918;28;20108;-65
2023/07/03 00:50:45;;;;;;;7.47;3.97;;;17.90;77.40;;;;;;5008472;28;20486;-65
2023/07/03 00:53:31;;;;;;;7.80;4.30;;;17.80;77.50;;;;;;5010737;28;20046;-64
2023/07/03 00:56:17;;;;;;;8.75;4.30;;;17.80;77.70;;;;;;4997276;28;20033;-64
2023/07/03 00:59:04;;;;;;;6.47;4.15;;;17.80;77.70;;;;;;5002201;28;20120;-63
2023/07/03 01:02:01;;;;;;;11.05;5.18;;;17.70;78.00;;;;;;5006489;28;20069;-64
2023/07/03 01:05:00;;;;;;;9.73;4.40;;;17.70;78.40;;;;;;5002483;28;20042;-63
2023/07/03 01:07:46;;;;;;;10.82;4.85;;;17.70;78.50;;;;;;5005089;28;20058;-63
2023/07/03 01:10:33;;;;;;;10.95;4.30;;;17.70;78.70;;;;;;5006587;28;20030;-64
2023/07/03 01:13:21;;;;;;;8.70;4.38;;;17.60;78.70;;;;;;4991127;28;20574;-63
2023/07/03 01:16:08;;;;;;;8.60;4.43;;;17.60;78.90;;;;;;4993406;28;20419;-63
2023/07/03 01:18:54;;;;;;;11.43;4.82;;;17.60;79.20;;;;;;4997086;28;20117;-63
2023/07/03 01:21:51;;;;;;;7.30;4.60;;;17.60;79.20;;;;;;4993786;28;20391;-63
2023/07/03 01:25:08;;;;;;;7.15;4.40;;;17.50;79.30;;;;;;5004904;28;20049;-64
2023/07/03 01:27:57;;;;;;;8.15;4.28;;;17.50;79.50;;;;;;5009895;28;20518;-63
2023/07/03 01:30:44;;;;;;;9.05;4.55;;;17.50;79.80;;;;;;5012027;28;20128;-64
2023/07/03 01:33:31;;;;;;;9.50;5.45;;;17.50;79.90;;;;;;4994278;28;20101;-63
2023/07/03 01:36:17;;;;;;;7.63;4.25;;;17.50;80.10;;;;;;4994595;28;20410;-63
2023/07/03 01:39:04;;;;;;;7.72;4.75;;;17.50;80.10;;;;;;4992839;28;20038;-64
2023/07/03 01:41:50;;;;;;;11.27;4.75;;;17.50;80.30;;;;;;5001860;28;20113;-64
2023/07/03 01:44:36;;;;;;;7.55;4.70;;;17.60;80.40;;;;;;5006258;28;20479;-64
2023/07/03 01:47:22;;;;;;;8.57;4.03;;;17.60;80.60;;;;;;5003358;28;20050;-63
2023/07/03 01:50:14;;;;;;;7.38;4.53;;;17.60;80.60;;;;;;5000001;28;20022;-63
2023/07/03 01:53:05;;;;;;;8.57;4.25;;;17.60;80.80;;;;;;5009116;28;20073;-64
2023/07/03 01:56:32;;;;;;;7.15;4.10;;;17.60;81.10;;;;;;5003793;28;20056;-63
2023/07/03 01:59:24;;;;;;;7.00;3.92;;;17.70;80.90;;;;;;4925644;29;20386;-64
2023/07/03 02:02:22;;;;;;;12.98;5.57;;;17.70;81.20;;;;;;4932169;29;20039;-64
2023/07/03 02:05:12;;;;;;;9.77;4.50;;;17.70;81.30;;;;;;5009929;28;20562;-64
2023/07/03 02:08:00;;;;;;;7.63;5.00;;;17.80;81.30;;;;;;4999426;28;20097;-64
2023/07/03 02:10:46;;;;;;;8.15;4.10;;;17.80;81.20;;;;;;5008689;28;20033;-64
2023/07/03 02:13:32;;;;;;;8.02;4.68;;;17.80;81.10;;;;;;5009034;28;20054;-64
2023/07/03 02:16:18;;;;;;;9.13;4.75;;;17.80;81.20;;;;;;5010071;28;20065;-65
2023/07/03 02:19:05;;;;;;;7.32;4.00;;;17.80;81.40;;;;;;5008040;28;20037;-65
2023/07/03 02:21:50;;;;;;;10.88;4.57;;;17.80;81.60;;;;;;4996643;28;20038;-65
2023/07/03 02:24:37;;;;;;;9.13;4.25;;;17.80;81.50;;;;;;4993048;28;20105;-65
2023/07/03 02:27:23;;;;;;;7.65;4.60;;;17.90;81.60;;;;;;5002169;28;20038;-65
2023/07/03 02:30:09;;;;;;;8.73;4.45;;;17.90;81.60;;;;;;5007410;28;20038;-65
2023/07/03 02:32:55;;;;;;;8.88;4.70;;;17.90;81.80;;;;;;5006920;28;20052;-64
2023/07/03 02:35:41;;;;;;;9.82;4.82;;;17.90;82.10;;;;;;5010790;28;20505;-65
2023/07/03 02:38:27;;;;;;;8.02;4.32;;;18.00;82.10;;;;;;5009231;28;20126;-65
2023/07/03 02:41:13;;;;;;;9.48;4.40;;;17.90;82.00;;;;;;5011065;28;20079;-65
2023/07/03 02:43:59;;;;;;;13.93;5.13;;;18.00;82.10;;;;;;4993433;28;20471;-64
2023/07/03 02:46:46;;;;;;;10.98;4.93;;;18.00;82.00;;;;;;5005107;28;20394;-65
2023/07/03 02:49:32;;;;;;;8.80;5.18;;;18.00;82.00;;;;;;4996222;28;20053;-64
2023/07/03 02:52:18;;;;;;;8.88;4.57;;;18.00;82.20;;;;;;5006818;28;20034;-64
2023/07/03 02:55:04;;;;;;;9.18;4.57;;;18.00;82.10;;;;;;4993424;28;20085;-64
2023/07/03 02:57:51;;;;;;;7.22;4.43;;;18.10;82.20;;;;;;4999446;28;20395;-65
2023/07/03 03:00:37;;;;;;;9.73;4.65;;;18.10;82.40;;;;;;5004617;28;20042;-64
2023/07/03 03:03:23;;;;;;;9.27;4.28;;;18.10;82.20;;;;;;4994982;28;20053;-64
2023/07/03 03:06:09;;;;;;;8.80;4.93;;;18.20;82.20;;;;;;5003959;28;20392;-64
2023/07/03 03:08:55;;;;;;;8.25;4.10;;;18.20;82.30;;;;;;4992818;28;20573;-64
2023/07/03 03:11:41;;;;;;;9.82;4.30;;;18.20;82.50;;;;;;4994670;28;20644;-64
2023/07/03 03:14:26;;;;;;;6.60;4.20;;;18.30;82.60;;;;;;5009454;28;20565;-65
2023/07/03 03:17:12;;;;;;;8.00;4.70;;;18.30;82.70;;;;;;5002771;28;20093;-69
2023/07/03 03:19:58;;;;;;;9.00;5.35;;;18.30;82.60;;;;;;4992286;28;20102;-71
2023/07/03 03:22:44;;;;;;;10.68;5.22;;;18.30;82.60;;;;;;5006034;28;20031;-69
2023/07/03 03:25:30;;;;;;;9.40;4.68;;;18.30;82.50;;;;;;4992788;28;20026;-70
2023/07/03 03:28:16;;;;;;;13.48;4.60;;;18.30;82.60;;;;;;5007339;28;20464;-71
2023/07/03 03:31:02;;;;;;;7.07;4.68;;;18.30;82.50;;;;;;5006269;28;20498;-72
2023/07/03 03:33:48;;;;;;;9.13;5.35;;;18.30;82.70;;;;;;5003960;28;20103;-71
2023/07/03 03:36:37;;;;;;;10.48;4.45;;;18.30;82.70;;;;;;4993554;28;20483;-73
2023/07/03 03:39:23;;;;;;;8.02;4.72;;;18.30;82.70;;;;;;5005353;28;20561;-69
2023/07/03 03:42:11;;;;;;;12.75;5.20;;;18.40;82.90;;;;;;5003202;28;20053;-69
2023/07/03 03:44:57;;;;;;;6.53;3.75;;;18.40;82.80;;;;;;5010889;28;20509;-69
2023/07/03 03:47:43;;;;;;;10.07;4.38;;;18.40;83.00;;;;;;4998353;28;20534;-69
2023/07/03 03:50:29;;;;;;;9.32;4.70;;;18.40;82.90;;;;;;4991054;28;20026;-69
2023/07/03 03:53:16;;;;;;;10.63;4.63;;;18.50;83.10;;;;;;4994654;28;20487;-69
2023/07/03 03:56:02;;;;;;;8.27;4.00;;;18.50;83.10;;;;;;5010337;28;20033;-69
2023/07/03 03:58:48;;;;;;;8.18;4.05;;;18.50;83.10;;;;;;4999315;28;20551;-69
2023/07/03 04:01:34;;;;;;;9.13;4.28;;;18.50;83.10;;;;;;4996722;28;20065;-69
2023/07/03 04:04:20;;;;;;;9.75;5.07;;;18.60;83.50;;;;;;5004587;28;20125;-69
2023/07/03 04:07:06;;;;;;;10.70;5.38;;;18.50;83.40;;;;;;5000247;28;20037;-69
2023/07/03 04:09:52;;;;;;;10.00;4.57;;;18.60;84.00;;;;;;5005140;28;20041;-70
2023/07/03 04:12:38;;;;;;;8.65;4.40;;;18.60;83.50;;;;;;5002604;28;20077;-69
2023/07/03 04:15:23;;;;;;;8.48;4.38;;;18.60;83.60;;;;;;4995469;28;20036;-69
2023/07/03 04:18:09;;;;;;;7.97;5.28;;;18.70;83.90;;;;;;5008558;28;20125;-70
2023/07/03 04:20:56;;;;;;;9.10;4.93;;;18.70;83.90;;;;;;5011345;28;20030;-70
2023/07/03 04:23:42;;;;;;;9.65;4.72;;;18.70;83.80;;;;;;5009908;28;20152;-70
2023/07/03 04:26:27;;;;;;;10.15;4.07;;;18.80;83.90;;;;;;5007378;28;20042;-70
2023/07/03 04:29:13;;;;;;;7.25;3.88;;;18.80;84.60;;;;;;5000797;28;20029;-70
2023/07/03 04:31:59;;;;;;;6.78;4.15;;;18.80;84.10;;;;;;5002199;28;20402;-69
2023/07/03 04:34:45;;;;;;;9.65;5.50;;;18.80;84.30;;;;;;4991946;28;20499;-69
2023/07/03 04:37:31;;;;;;;12.68;4.47;;;18.90;84.40;;;;;;5007472;28;20068;-69
2023/07/03 04:40:18;;;;;;;7.18;3.97;;;18.90;84.30;;;;;;4997924;28;20502;-69
2023/07/03 04:43:06;;;;;;;9.25;4.15;;;18.90;84.30;;;;;;4996352;28;20084;-69
2023/07/03 04:45:52;;;;;;;13.25;4.70;;;19.00;84.50;;;;;;4990707;28;20034;-70
2023/07/03 04:48:39;;;;;;;7.95;4.50;;;19.00;84.40;;;;;;5008676;28;20042;-69
2023/07/03 04:51:25;;;;;;;7.72;4.53;;;19.10;84.40;;;;;;5006257;28;20042;-70
2023/07/03 04:54:11;;;;;;;7.97;4.35;;;19.10;84.50;;;;;;5008867;28;20046;-69
2023/07/03 04:56:57;;;;;;;11.00;5.40;;;19.20;84.50;;;;;;5008232;28;20387;-70
2023/07/03 04:59:43;;;;;;;10.55;4.80;;;19.20;84.60;;;;;;5002966;28;20034;-70
2023/07/03 05:02:29;;;;;;;9.65;4.90;;;19.30;84.50;;;;;;5006251;28;20042;-69
2023/07/03 05:05:17;;;;;;;8.15;4.43;;;19.30;84.60;;;;;;5012108;28;20475;-70
2023/07/03 05:08:03;;;;;;;11.27;4.72;;;19.40;84.70;;;;;;4996715;28;20466;-70
2023/07/03 05:10:50;;;;;;;8.57;4.95;;;19.40;84.80;;;;;;4998209;28;20037;-70
2023/07/03 05:13:36;;;;;;;10.52;5.43;;;19.50;84.80;;;;;;5009753;28;20053;-71
2023/07/03 05:16:22;;;;;;;11.15;4.80;;;19.50;84.70;;;;;;5005744;28;20041;-71
2023/07/03 05:19:08;;;;;;;16.90;5.28;;;19.60;84.80;;;;;;5004317;28;20113;-72
2023/07/03 05:21:54;;;;;;;8.35;4.55;;;19.70;84.80;;;;;;5008172;28;20022;-72
2023/07/03 05:24:40;;;;;;;9.60;4.80;;;19.70;84.80;;;;;;4999077;28;20314;-72
2023/07/03 05:27:26;;;;;;;11.02;4.35;;;19.80;84.50;;;;;;5011611;28;20038;-72
2023/07/03 05:30:12;;;;;;;9.65;4.75;;;20.00;84.60;;;;;;5012730;28;20517;-72
2023/07/03 05:32:58;;;;;;;13.35;4.68;;;20.00;84.50;;;;;;5007826;28;20034;-72
2023/07/03 05:35:44;;;;;;;7.90;4.80;;;20.10;84.50;;;;;;4994001;28;20380;-72
2023/07/03 05:38:30;;;;;;;18.23;4.47;;;20.10;84.40;;;;;;5010895;28;20481;-74
2023/07/03 05:41:16;;;;;;;11.10;4.85;;;20.20;84.20;;;;;;5013143;28;20080;-75
2023/07/03 05:44:02;;;;;;;8.27;4.82;;;20.30;83.90;;;;;;4994399;28;20049;-73
2023/07/03 05:46:47;;;;;;;8.43;4.00;;;20.40;84.00;;;;;;4998845;28;20072;-74
2023/07/03 05:49:33;;;;;;;8.90;4.95;;;20.50;83.90;;;;;;5011862;28;20034;-75
2023/07/03 05:52:19;;;;;;;6.85;4.47;;;20.50;83.70;;;;;;5009488;28;20037;-74
2023/07/03 05:55:06;;;;;;;8.05;4.75;;;20.60;83.10;;;;;;5013105;28;20064;-75
2023/07/03 05:57:52;;;;;;;12.38;5.03;;;20.60;82.80;;;;;;5009242;28;20168;-73
2023/07/03 06:00:37;;;;;;;14.20;5.38;;;20.70;82.30;;;;;;5011009;28;20034;-75
2023/07/03 06:03:24;;;;;;;6.75;3.70;;;20.70;82.30;;;;;;5010341;28;20120;-73
2023/07/03 06:06:12;;;;;;;9.30;4.82;;;20.70;82.20;;;;;;5001815;28;20062;-73
2023/07/03 06:08:58;;;;;;;9.68;4.90;;;20.80;81.90;;;;;;4993324;28;20057;-69
2023/07/03 06:11:45;;;;;;;10.35;5.13;;;20.80;81.00;;;;;;5004972;28;20113;-74
2023/07/03 06:14:31;;;;;;;6.10;4.20;;;20.80;80.80;;;;;;5007704;28;20329;-74
2023/07/03 06:17:17;;;;;;;11.48;5.00;;;20.80;80.60;;;;;;5009969;28;20446;-71
2023/07/03 06:20:05;;;;;;;8.05;4.80;;;20.90;80.60;;;;;;5011820;28;20403;-72
2023/07/03 06:22:51;;;;;;;8.68;4.65;;;20.90;80.10;;;;;;5004108;28;20149;-73
2023/07/03 06:25:37;;;;;;;8.02;4.60;;;21.00;80.00;;;;;;5001856;28;20438;-72
2023/07/03 06:28:23;;;;;;;7.38;4.00;;;21.10;79.60;;;;;;5008920;28;20113;-72
2023/07/03 06:31:09;;;;;;;8.98;4.85;;;21.20;79.20;;;;;;5008290;28;20482;-71
2023/07/03 06:33:55;;;;;;;14.02;5.13;;;21.40;78.80;;;;;;5003321;28;20099;-71
2023/07/03 06:36:41;;;;;;;6.47;3.95;;;21.50;78.20;;;;;;4993494;28;20041;-71
2023/07/03 06:39:27;;;;;;;10.02;4.00;;;21.50;78.20;;;;;;5010026;28;20030;-72
2023/07/03 06:42:13;;;;;;;7.30;4.38;;;21.60;78.00;;;;;;4997655;28;20152;-70
2023/07/03 06:44:59;;;;;;;10.15;5.22;;;21.70;78.00;;;;;;5011151;28;20112;-70
2023/07/03 06:47:45;;;;;;;11.73;5.30;;;21.80;77.60;;;;;;5007659;28;20051;-71
2023/07/03 06:50:31;;;;;;;12.32;5.68;;;21.90;77.60;;;;;;5010917;28;20038;-71
2023/07/03 06:53:16;;;;;;;10.60;5.53;;;22.00;77.20;;;;;;5000100;28;20050;-70
2023/07/03 06:56:03;;;;;;;7.53;3.85;;;22.00;76.50;;;;;;5008626;28;20076;-70
2023/07/03 06:58:50;;;;;;;6.47;3.85;;;22.10;76.40;;;;;;5002435;28;20121;-71
2023/07/03 07:01:36;;;;;;;8.63;4.43;;;22.20;75.70;;;;;;4998401;28;20499;-71
2023/07/03 07:04:22;;;;;;;9.93;5.45;;;22.20;75.70;;;;;;5005286;28;20103;-71
2023/07/03 07:07:08;;;;;;;12.38;6.13;;;22.20;75.60;;;;;;5002978;28;20077;-70
2023/07/03 07:09:54;;;;;;;12.93;6.93;;;22.20;75.30;;;;;;5010388;28;20037;-72
2023/07/03 07:12:40;;;;;;;6.85;4.35;;;22.30;75.40;;;;;;5009585;28;20598;-69
2023/07/03 07:15:26;;;;;;;9.27;5.35;;;22.30;74.90;;;;;;5007846;28;20083;-71
2023/07/03 07:18:13;;;;;;;9.02;5.03;;;22.40;75.10;;;;;;5009864;28;20117;-70
2023/07/03 07:21:00;;;;;;;10.82;4.95;;;22.40;75.60;;;;;;5001230;28;20088;-71
2023/07/03 07:23:50;;;;;;;8.18;5.20;;;22.50;75.00;;;;;;5009531;28;20037;-74
2023/07/03 07:26:37;;;;;;;10.30;4.38;;;22.50;74.30;;;;;;5002875;28;20022;-73
2023/07/03 07:29:25;;;;;;;16.02;7.20;;;22.50;74.10;;;;;;4998126;28;20575;-74
2023/07/03 07:32:10;;;;;;;13.70;6.38;;;22.50;74.40;;;;;;4996903;28;20041;-67
2023/07/03 07:34:56;;;;;;;15.65;6.30;;;22.50;74.10;;;;;;5009890;28;20120;-71
2023/07/03 07:37:42;;;;;;;16.67;7.32;;;22.50;74.20;;;;;;5004701;28;20223;-71
2023/07/03 07:40:28;;;;;;;15.70;8.38;;;22.60;73.80;;;;;;5009780;28;20092;-72
2023/07/03 07:43:14;;;;;;;16.00;6.82;;;22.70;74.00;;;;;;4996092;28;20034;-72
2023/07/03 07:46:00;;;;;;;9.95;5.80;;;22.70;73.50;;;;;;4997774;28;20505;-72
2023/07/03 07:48:47;;;;;;;10.10;4.95;;;22.80;73.60;;;;;;5004172;28;20085;-71
2023/07/03 07:51:33;;;;;;;11.63;5.22;;;22.80;73.10;;;;;;5008561;28;20034;-72
2023/07/03 07:54:19;;;;;;;10.60;4.82;;;22.80;73.20;;;;;;5003431;28;20525;-69
2023/07/03 07:57:05;;;;;;;6.93;3.95;;;22.80;72.50;;;;;;4994608;28;20038;-69
2023/07/03 07:59:51;;;;;;;7.90;3.83;;;22.80;72.30;;;;;;4996268;28;20089;-69
2023/07/03 08:02:37;;;;;;;11.70;5.18;;;22.80;72.90;;;;;;5002033;28;20038;-69
2023/07/03 08:05:23;;;;;;;11.60;5.57;;;22.80;73.10;;;;;;5006956;28;20041;-69
2023/07/03 08:08:09;;;;;;;12.15;5.43;;;22.80;73.10;;;;;;5004542;28;20050;-69
2023/07/03 08:10:57;;;;;;;13.80;4.95;;;22.90;73.00;;;;;;5007526;28;20380;-70
2023/07/03 08:13:43;;;;;;;11.75;5.65;;;22.80;72.80;;;;;;5006207;28;20045;-70
2023/07/03 08:16:29;;;;;;;13.85;5.70;;;22.90;73.20;;;;;;5007623;28;20052;-70
2023/07/03 08:19:15;;;;;;;13.27;5.88;;;22.90;73.40;;;;;;5009541;28;20034;-70
2023/07/03 08:22:01;;;;;;;15.35;5.63;;;23.00;73.00;;;;;;5007684;28;20076;-70
2023/07/03 08:24:47;;;;;;;22.63;6.00;;;23.10;72.20;;;;;;5009960;28;20028;-70
2023/07/03 08:27:33;;;;;;;28.30;6.28;;;23.10;72.40;;;;;;5003960;28;20040;-71
2023/07/03 08:30:21;;;;;;;46.20;7.13;;;23.20;72.50;;;;;;4991717;28;20031;-70
2023/07/03 08:33:07;;;;;;;31.20;5.97;;;23.30;72.40;;;;;;5003538;28;20041;-70
2023/07/03 08:35:53;;;;;;;13.38;4.47;;;23.40;72.30;;;;;;5004157;28;20053;-70
2023/07/03 08:38:39;;;;;;;9.23;3.72;;;23.40;71.90;;;;;;5006098;28;20116;-70
2023/07/03 08:41:25;;;;;;;24.48;5.20;;;23.50;70.80;;;;;;5006837;28;20248;-70
2023/07/03 08:44:12;;;;;;;23.85;6.43;;;23.50;71.20;;;;;;5000730;28;20046;-70
2023/07/03 08:47:03;;;;;;;15.90;5.50;;;23.60;70.90;;;;;;5002763;28;20089;-70
2023/07/03 08:49:50;;;;;;;24.48;6.03;;;23.60;70.50;;;;;;5001718;28;20057;-71
2023/07/03 08:52:45;;;;;;;11.07;4.18;;;23.50;70.30;;;;;;5002701;28;20469;-71
2023/07/03 08:55:40;;;;;;;9.73;4.97;;;23.40;69.70;;;;;;5000439;28;20083;-70
2023/07/03 08:58:26;;;;;;;8.38;3.25;;;23.30;69.40;;;;;;5005355;28;20067;-70
2023/07/03 09:01:38;;;;;;;9.90;4.22;;;23.20;69.10;;;;;;5005858;28;20040;-71
2023/07/03 09:05:02;;;;;;;10.43;3.80;;;23.10;69.30;;;;;;4989029;28;20042;-71
2023/07/03 09:07:52;;;;;;;11.68;3.67;;;23.10;69.70;;;;;;4995292;28;20132;-70
2023/07/03 09:10:42;;;;;;;13.77;4.45;;;23.00;69.20;;;;;;4989218;28;20472;-70
2023/07/03 09:13:37;;;;;;;9.88;4.55;;;23.00;68.90;;;;;;5007063;28;20042;-71
2023/07/03 09:16:23;;;;;;;10.73;4.32;;;23.00;68.30;;;;;;5007349;28;20034;-69
2023/07/03 09:19:17;;;;;;;30.55;7.85;;;23.00;68.30;;;;;;4994235;28;20287;-69
2023/07/03 09:22:06;;;;;;;7.70;4.10;;;23.00;67.90;;;;;;5000166;28;20494;-68
2023/07/03 09:24:54;;;;;;;15.32;5.38;;;23.00;66.80;;;;;;5004326;28;20042;-69
2023/07/03 09:27:41;;;;;;;16.27;5.03;;;23.00;66.40;;;;;;5001291;28;20438;-69
2023/07/03 09:30:27;;;;;;;10.13;3.13;;;23.00;66.50;;;;;;4997915;28;20038;-69
2023/07/03 09:33:13;;;;;;;34.30;6.18;;;23.20;66.10;;;;;;4993361;28;20526;-69
2023/07/03 09:36:19;;;;;;;10.10;3.47;;;23.20;66.10;;;;;;4999428;28;20026;-71
2023/07/03 09:39:14;;;;;;;7.75;3.00;;;23.40;65.30;;;;;;5000096;28;20476;-69
2023/07/03 09:42:07;;;;;;;9.32;3.83;;;23.50;65.00;;;;;;4992051;28;20050;-69
2023/07/03 09:44:53;;;;;;;7.32;3.30;;;23.60;64.60;;;;;;4989081;28;20041;-69
2023/07/03 09:47:41;;;;;;;5.85;2.85;;;23.60;63.50;;;;;;4993848;28;20038;-69
2023/07/03 09:50:28;;;;;;;8.43;3.42;;;23.60;62.20;;;;;;5005851;28;20050;-69
2023/07/03 09:53:22;;;;;;;4.22;2.50;;;23.70;62.40;;;;;;5011537;28;20608;-68
2023/07/03 09:56:14;;;;;;;8.07;2.85;;;23.80;62.30;;;;;;4992615;28;20066;-69
2023/07/03 09:59:05;;;;;;;7.40;2.70;;;23.80;60.90;;;;;;5003992;28;20033;-69
2023/07/03 10:01:57;;;;;;;6.07;2.58;;;23.70;60.20;;;;;;5010892;28;20034;-69
2023/07/03 10:04:44;;;;;;;6.53;2.92;;;23.80;60.60;;;;;;5006664;28;20569;-69
2023/07/03 10:07:38;;;;;;;6.97;2.88;;;23.90;61.10;;;;;;5009965;28;20054;-69
2023/07/03 10:10:27;;;;;;;6.43;2.65;;;24.00;60.80;;;;;;4997371;28;20034;-68
2023/07/03 10:13:22;;;;;;;3.85;1.92;;;24.00;60.10;;;;;;5026435;28;20046;-68
2023/07/03 10:16:10;;;;;;;5.80;2.78;;;24.10;59.20;;;;;;4992822;28;20034;-69
2023/07/03 10:18:57;;;;;;;5.20;2.45;;;24.20;59.70;;;;;;4994930;28;20042;-68
2023/07/03 10:21:44;;;;;;;5.13;2.28;;;24.30;59.80;;;;;;4995245;28;20029;-69
2023/07/03 10:24:32;;;;;;;5.30;2.47;;;24.30;59.50;;;;;;5006905;28;20200;-66
2023/07/03 10:27:19;;;;;;;6.38;3.38;;;24.50;59.90;;;;;;5000809;28;20035;-68
2023/07/03 10:30:11;;;;;;;9.90;3.22;;;24.60;59.70;;;;;;5010811;28;20495;-69
2023/07/03 10:32:59;;;;;;;6.10;2.63;;;24.70;59.20;;;;;;5002420;28;20038;-68
2023/07/03 10:35:49;;;;;;;7.32;2.78;;;24.70;59.30;;;;;;4994234;28;20034;-68
2023/07/03 10:38:43;;;;;;;7.63;3.75;;;24.70;59.30;;;;;;5007810;28;20096;-68
2023/07/03 10:41:56;;;;;;;8.30;2.95;;;24.70;59.10;;;;;;5013133;28;20030;-67
2023/07/03 10:44:42;;;;;;;5.88;2.60;;;24.80;59.70;;;;;;5011316;28;20030;-68
2023/07/03 10:47:46;;;;;;;10.60;2.88;;;24.90;59.60;;;;;;5012519;28;20402;-68
2023/07/03 10:50:54;;;;;;;6.63;2.80;;;24.90;59.40;;;;;;5001099;28;20038;-68
2023/07/03 10:54:15;;;;;;;4.78;2.65;;;24.90;59.40;;;;;;5004937;28;20545;-68
2023/07/03 10:57:06;;;;;;;6.45;2.55;;;25.00;59.10;;;;;;5008611;28;20505;-68
2023/07/03 10:59:58;;;;;;;6.97;3.20;;;25.10;59.20;;;;;;5002031;28;20038;-68
2023/07/03 11:02:51;;;;;;;6.53;3.13;;;25.10;59.30;;;;;;5011321;28;20145;-68
2023/07/03 11:05:51;;;;;;;11.60;3.13;;;25.10;58.50;;;;;;4997436;28;20101;-69
2023/07/03 11:09:05;;;;;;;8.50;2.13;;;25.10;58.20;;;;;;5008204;28;20482;-68
2023/07/03 11:12:00;;;;;;;4.82;2.03;;;25.00;58.60;;;;;;5009530;28;20379;-68
2023/07/03 11:15:05;;;;;;;8.13;3.22;;;25.00;58.00;;;;;;5007593;28;20092;-68
2023/07/03 11:18:28;;;;;;;7.38;2.47;;;24.90;58.40;;;;;;4995865;28;20038;-69
2023/07/03 11:21:29;;;;;;;6.78;2.50;;;24.80;58.70;;;;;;5001204;28;20534;-68
2023/07/03 11:24:24;;;;;;;8.23;3.25;;;24.70;58.60;;;;;;5006517;28;20038;-68
2023/07/03 11:27:24;;;;;;;6.70;3.20;;;24.70;58.40;;;;;;4997844;28;20494;-67
2023/07/03 11:30:11;;;;;;;5.22;2.20;;;24.70;58.50;;;;;;5007786;28;20097;-69
2023/07/03 11:32:59;;;;;;;5.28;2.30;;;24.80;58.90;;;;;;5002754;28;20045;-68
2023/07/03 11:35:56;;;;;;;9.70;3.45;;;24.80;59.20;;;;;;5000034;28;20034;-68
2023/07/03 11:39:15;;;;;;;5.18;2.55;;;24.90;59.30;;;;;;4999612;28;20035;-70
2023/07/03 11:42:00;;;;;;;7.55;2.63;;;24.90;59.50;;;;;;5010635;28;20038;-67
2023/07/03 11:44:56;;;;;;;6.03;2.63;;;24.90;59.40;;;;;;5007981;28;20123;-66
2023/07/03 11:47:41;;;;;;;4.93;2.22;;;24.80;58.80;;;;;;5008120;28;20377;-67
2023/07/03 11:50:34;;;;;;;7.63;2.67;;;24.70;58.90;;;;;;5003184;28;20045;-69
2023/07/03 11:53:38;;;;;;;8.40;3.05;;;24.60;58.50;;;;;;4999671;28;20060;-67
2023/07/03 11:56:30;;;;;;;6.07;2.47;;;24.50;58.90;;;;;;5002345;28;20128;-67
2023/07/03 11:59:22;;;;;;;8.63;3.10;;;24.50;58.70;;;;;;5005062;28;20042;-68
2023/07/03 12:02:11;;;;;;;8.13;2.40;;;24.50;58.90;;;;;;5007140;28;20405;-69
2023/07/03 12:04:57;;;;;;;6.57;2.47;;;24.60;59.00;;;;;;5005467;28;20479;-68
2023/07/03 12:07:47;;;;;;;8.40;2.78;;;24.70;59.20;;;;;;5007558;28;20120;-68
2023/07/03 12:10:38;;;;;;;10.02;3.00;;;24.70;58.60;;;;;;4996528;28;20034;-68
2023/07/03 12:13:39;;;;;;;3.97;2.22;;;24.70;58.50;;;;;;4995524;28;20046;-68
2023/07/03 12:16:31;;;;;;;5.63;2.50;;;24.70;58.40;;;;;;5000031;28;20072;-69
2023/07/03 12:19:17;;;;;;;5.60;2.53;;;24.60;58.80;;;;;;5001102;28;20041;-68
2023/07/03 12:22:04;;;;;;;8.60;2.22;;;24.50;58.80;;;;;;5006780;28;20072;-69
2023/07/03 12:25:02;;;;;;;8.25;2.60;;;24.40;59.00;;;;;;5006166;28;20037;-68
2023/07/03 12:27:49;;;;;;;6.28;2.42;;;24.40;59.20;;;;;;5002395;28;20113;-68
2023/07/03 12:30:36;;;;;;;7.55;2.15;;;24.30;59.30;;;;;;5003324;28;20091;-67
2023/07/03 12:33:22;;;;;;;13.18;2.63;;;24.30;59.20;;;;;;5005008;28;20041;-68
2023/07/03 12:36:08;;;;;;;6.82;2.72;;;24.30;58.80;;;;;;5000985;28;20099;-67
2023/07/03 12:38:56;;;;;;;7.13;2.50;;;24.30;58.40;;;;;;5005923;28;20046;-67
2023/07/03 12:41:42;;;;;;;8.27;2.75;;;24.30;58.80;;;;;;5007457;28;20037;-68
2023/07/03 12:44:28;;;;;;;5.57;2.60;;;24.30;58.80;;;;;;4991622;28;20610;-67
2023/07/03 12:47:17;;;;;;;6.60;2.95;;;24.30;58.80;;;;;;4991747;28;20062;-67
2023/07/03 12:50:04;;;;;;;8.73;2.75;;;24.40;59.20;;;;;;4998596;28;20034;-67
2023/07/03 12:52:59;;;;;;;10.13;3.08;;;24.40;59.40;;;;;;4989032;28;20033;-68
2023/07/03 12:55:50;;;;;;;9.07;2.78;;;24.50;59.40;;;;;;4994594;28;20065;-68
2023/07/03 12:58:37;;;;;;;5.53;2.42;;;24.50;59.10;;;;;;5007757;28;20076;-67
2023/07/03 13:01:24;;;;;;;6.95;2.83;;;24.70;59.20;;;;;;5002489;28;20046;-66
2023/07/03 13:04:10;;;;;;;7.95;2.50;;;24.70;58.90;;;;;;4990901;28;20418;-67
2023/07/03 13:06:57;;;;;;;7.53;2.70;;;24.70;59.00;;;;;;5007370;28;20022;-67
2023/07/03 13:09:43;;;;;;;5.03;2.45;;;24.70;59.10;;;;;;5005394;28;20053;-67
2023/07/03 13:12:29;;;;;;;8.23;2.50;;;24.80;59.30;;;;;;4989488;28;20052;-67
2023/07/03 13:15:41;;;;;;;12.52;2.63;;;24.80;59.50;;;;;;4995616;28;20512;-68
2023/07/03 13:18:28;;;;;;;7.97;2.85;;;24.90;59.40;;;;;;5002668;28;20498;-68
2023/07/03 13:21:19;;;;;;;8.27;2.78;;;25.00;59.60;;;;;;5000472;28;20380;-68
2023/07/03 13:24:13;;;;;;;12.68;3.67;;;25.00;59.30;;;;;;5013453;28;20038;-67
2023/07/03 13:27:00;;;;;;;10.55;2.75;;;25.00;59.20;;;;;;5013086;28;20030;-68
2023/07/03 13:29:46;;;;;;;8.02;2.88;;;25.00;59.10;;;;;;5005884;28;20034;-67
2023/07/03 13:32:31;;;;;;;9.13;2.78;;;25.00;59.50;;;;;;5007424;28;20072;-68
2023/07/03 13:35:33;;;;;;;11.23;3.22;;;25.00;59.20;;;;;;5003693;28;20042;-68
2023/07/03 13:38:22;;;;;;;7.50;2.28;;;25.20;59.40;;;;;;4992208;28;20033;-67
2023/07/03 13:41:08;;;;;;;6.90;2.72;;;25.20;59.00;;;;;;5007445;28;20132;-67
2023/07/03 13:43:58;;;;;;;7.22;2.78;;;25.20;59.10;;;;;;5014323;28;20479;-67
2023/07/03 13:46:46;;;;;;;9.13;2.75;;;25.20;58.90;;;;;;5009846;28;20455;-67
2023/07/03 13:49:31;;;;;;;8.27;2.55;;;25.20;58.80;;;;;;5006777;28;20511;-67
2023/07/03 13:52:18;;;;;;;12.65;3.03;;;25.20;58.60;;;;;;5009059;28;20476;-67
2023/07/03 13:55:04;;;;;;;10.23;2.95;;;25.20;58.70;;;;;;5010634;28;20128;-67
2023/07/03 13:57:51;;;;;;;5.78;2.22;;;25.10;59.20;;;;;;5011083;28;20077;-67
2023/07/03 14:00:37;;;;;;;6.72;2.55;;;25.10;58.70;;;;;;5011356;28;20029;-67
2023/07/03 14:03:23;;;;;;;8.55;2.33;;;25.20;58.90;;;;;;5011628;28;20407;-67
2023/07/03 14:06:10;;;;;;;6.50;2.60;;;25.40;59.10;;;;;;5008744;28;20092;-67
2023/07/03 14:08:56;;;;;;;8.15;3.00;;;25.40;59.10;;;;;;5006091;28;20514;-67
2023/07/03 14:11:43;;;;;;;6.43;2.75;;;25.30;58.90;;;;;;5011162;28;20038;-67
2023/07/03 14:14:29;;;;;;;7.72;3.30;;;25.30;59.10;;;;;;5012240;28;20337;-68
2023/07/03 14:17:15;;;;;;;5.45;2.45;;;25.20;59.60;;;;;;5003831;28;20034;-68
2023/07/03 14:20:01;;;;;;;9.32;3.03;;;25.30;59.40;;;;;;5008265;28;20038;-67
2023/07/03 14:22:48;;;;;;;7.03;2.85;;;25.30;59.30;;;;;;5012970;28;20038;-68
2023/07/03 14:25:34;;;;;;;6.28;3.03;;;25.30;59.20;;;;;;5002346;28;20031;-68
2023/07/03 14:28:20;;;;;;;10.73;2.75;;;25.20;59.20;;;;;;5008743;28;20065;-68
2023/07/03 14:31:11;;;;;;;7.05;2.38;;;25.20;59.50;;;;;;5011003;28;20069;-69
2023/07/03 14:33:57;;;;;;;6.47;2.83;;;25.20;59.80;;;;;;5011939;28;20038;-68